Time;durP1;ratioP1;P1;durP2;ratioP2;P2;SDS_P1;SDS_P2;PMS_P1;PMS_P2;Temp;Humidity;BMP_temperature;BMP_pressure;BME280_temperature;BME280_humidity;BME280_pressure;Samples;Min_cycle;Max_cycle;Signal;HPM_P1;HPM_P2
2023/12/19 00:00:39;;;;;;;;;;;;;;;;;;5096681;28;19959;-73
2023/12/19 00:03:05;;;;;;;;;;;;;;;;;;5078117;28;19948;-73
2023/12/19 00:05:31;;;;;;;;;;;;;;;;;;5096616;28;20347;-74
2023/12/19 00:07:57;;;;;;;;;;;;;;;;;;5078437;28;19947;-74
2023/12/19 00:10:23;;;;;;;;;;;;;;;;;;5096189;28;19909;-74
2023/12/19 00:12:49;;;;;;;;;;;;;;;;;;5077878;28;19908;-74
2023/12/19 00:15:16;;;;;;;;;;;;;;;;;;5096473;28;19915;-73
2023/12/19 00:17:43;;;;;;;;;;;;;;;;;;5096038;28;19909;-74
2023/12/19 00:20:09;;;;;;;;;;;;;;;;;;5078159;28;19923;-74
2023/12/19 00:22:34;;;;;;;;;;;;;;;;;;5078136;28;19908;-73
2023/12/19 00:25:00;;;;;;;;;;;;;;;;;;5095915;28;19908;-74
2023/12/19 00:27:26;;;;;;;;;;;;;;;;;;5096397;28;19914;-74
2023/12/19 00:29:52;;;;;;;;;;;;;;;;;;5095781;28;19908;-74
2023/12/19 00:32:18;;;;;;;;;;;;;;;;;;5096079;28;19915;-73
2023/12/19 00:34:44;;;;;;;;;;;;;;;;;;5096407;28;19961;-73
2023/12/19 00:37:11;;;;;;;;;;;;;;;;;;5095723;28;19912;-74
2023/12/19 00:39:37;;;;;;;;;;;;;;;;;;5095835;28;19927;-73
2023/12/19 00:42:03;;;;;;;;;;;;;;;;;;5096040;28;19908;-73
2023/12/19 00:44:29;;;;;;;;;;;;;;;;;;5095555;28;20002;-73
2023/12/19 00:46:55;;;;;;;;;;;;;;;;;;5095864;28;20001;-73
2023/12/19 00:49:21;;;;;;;;;;;;;;;;;;5095840;28;20441;-74
2023/12/19 00:51:47;;;;;;;;;;;;;;;;;;5095394;28;19916;-73
2023/12/19 00:54:13;;;;;;;;;;;;;;;;;;5095873;28;19916;-73
2023/12/19 00:56:39;;;;;;;;;;;;;;;;;;5095827;28;19908;-73
2023/12/19 00:59:05;;;;;;;;;;;;;;;;;;5095170;28;20414;-73
2023/12/19 01:01:31;;;;;;;;;;;;;;;;;;5095567;28;19931;-73
2023/12/19 01:03:57;;;;;;;;;;;;;;;;;;5095547;28;19954;-73
2023/12/19 01:06:22;;;;;;;;;;;;;;;;;;5095151;28;19914;-73
2023/12/19 01:08:49;;;;;;;;;;;;;;;;;;5095448;28;19974;-73
2023/12/19 01:11:14;;;;;;;;;;;;;;;;;;5077537;28;20028;-73
2023/12/19 01:13:40;;;;;;;;;;;;;;;;;;5094964;28;19915;-73
2023/12/19 01:16:06;;;;;;;;;;;;;;;;;;5077119;28;19951;-73
2023/12/19 01:18:32;;;;;;;;;;;;;;;;;;5095273;28;19908;-73
2023/12/19 01:20:58;;;;;;;;;;;;;;;;;;5076586;28;19935;-73
2023/12/19 01:23:25;;;;;;;;;;;;;;;;;;5094322;28;19908;-73
2023/12/19 01:25:51;;;;;;;;;;;;;;;;;;5095132;28;20420;-73
2023/12/19 01:28:17;;;;;;;;;;;;;;;;;;5094670;28;19958;-74
2023/12/19 01:30:43;;;;;;;;;;;;;;;;;;5095117;28;20387;-73
2023/12/19 01:33:09;;;;;;;;;;;;;;;;;;5094571;28;20003;-72
2023/12/19 01:35:35;;;;;;;;;;;;;;;;;;5094888;28;19915;-72
2023/12/19 01:38:01;;;;;;;;;;;;;;;;;;5076571;28;19908;-71
2023/12/19 01:40:28;;;;;;;;;;;;;;;;;;5094417;28;19970;-72
2023/12/19 01:42:54;;;;;;;;;;;;;;;;;;5076558;28;19978;-73
2023/12/19 01:45:20;;;;;;;;;;;;;;;;;;5094903;28;19908;-73
2023/12/19 01:47:46;;;;;;;;;;;;;;;;;;5094371;28;20394;-71
2023/12/19 01:50:12;;;;;;;;;;;;;;;;;;5094713;28;20292;-72
2023/12/19 01:52:38;;;;;;;;;;;;;;;;;;5094602;28;20006;-73
2023/12/19 01:55:04;;;;;;;;;;;;;;;;;;5094284;28;19909;-73
2023/12/19 01:57:30;;;;;;;;;;;;;;;;;;5076388;28;20011;-72
2023/12/19 01:59:56;;;;;;;;;;;;;;;;;;5094473;28;20280;-72
2023/12/19 02:02:22;;;;;;;;;;;;;;;;;;5094124;28;19908;-73
2023/12/19 02:04:48;;;;;;;;;;;;;;;;;;5094496;28;20377;-73
2023/12/19 02:07:14;;;;;;;;;;;;;;;;;;5076242;28;19916;-73
2023/12/19 02:09:40;;;;;;;;;;;;;;;;;;5094117;28;19908;-73
2023/12/19 02:12:06;;;;;;;;;;;;;;;;;;5094372;28;19955;-74
2023/12/19 02:14:32;;;;;;;;;;;;;;;;;;5094860;28;20365;-74
2023/12/19 02:16:59;;;;;;;;;;;;;;;;;;5093998;28;20253;-72
2023/12/19 02:19:25;;;;;;;;;;;;;;;;;;5076111;28;19912;-72
2023/12/19 02:21:51;;;;;;;;;;;;;;;;;;5094174;28;20376;-72
2023/12/19 02:24:17;;;;;;;;;;;;;;;;;;5093876;28;20037;-73
2023/12/19 02:26:43;;;;;;;;;;;;;;;;;;5094155;28;20392;-73
2023/12/19 02:29:09;;;;;;;;;;;;;;;;;;5094184;28;20261;-73
2023/12/19 02:31:35;;;;;;;;;;;;;;;;;;5093767;28;20325;-74
2023/12/19 02:34:01;;;;;;;;;;;;;;;;;;5093937;28;19931;-72
2023/12/19 02:36:27;;;;;;;;;;;;;;;;;;5093805;28;20368;-74
2023/12/19 02:38:53;;;;;;;;;;;;;;;;;;5093814;28;20334;-74
2023/12/19 02:41:19;;;;;;;;;;;;;;;;;;5094498;28;19908;-73
2023/12/19 02:43:45;;;;;;;;;;;;;;;;;;5093512;28;20431;-73
2023/12/19 02:46:11;;;;;;;;;;;;;;;;;;5094077;28;20372;-74
2023/12/19 02:48:37;;;;;;;;;;;;;;;;;;5075874;28;20356;-73
2023/12/19 02:51:03;;;;;;;;;;;;;;;;;;5093724;28;19923;-73
2023/12/19 02:53:29;;;;;;;;;;;;;;;;;;5094097;28;19908;-73
2023/12/19 02:55:55;;;;;;;;;;;;;;;;;;5093949;28;19908;-73
2023/12/19 02:58:21;;;;;;;;;;;;;;;;;;5093419;28;19908;-73
2023/12/19 03:00:47;;;;;;;;;;;;;;;;;;5075655;28;20432;-74
2023/12/19 03:03:13;;;;;;;;;;;;;;;;;;5093726;28;20272;-73
2023/12/19 03:05:39;;;;;;;;;;;;;;;;;;5093325;28;19908;-73
2023/12/19 03:08:05;;;;;;;;;;;;;;;;;;5094229;28;19915;-73
2023/12/19 03:10:31;;;;;;;;;;;;;;;;;;5093973;28;19909;-74
2023/12/19 03:12:56;;;;;;;;;;;;;;;;;;5093260;28;20371;-73
2023/12/19 03:15:24;;;;;;;;;;;;;;;;;;5093606;28;20366;-73
2023/12/19 03:17:50;;;;;;;;;;;;;;;;;;5093594;28;19908;-73
2023/12/19 03:20:16;;;;;;;;;;;;;;;;;;5093042;28;20023;-73
2023/12/19 03:22:42;;;;;;;;;;;;;;;;;;5093493;28;19915;-73
2023/12/19 03:25:08;;;;;;;;;;;;;;;;;;5093564;28;19951;-73
2023/12/19 03:27:34;;;;;;;;;;;;;;;;;;5093123;28;19951;-73
2023/12/19 03:30:00;;;;;;;;;;;;;;;;;;5093713;28;19908;-74
2023/12/19 03:32:26;;;;;;;;;;;;;;;;;;5093684;28;19908;-73
2023/12/19 03:34:52;;;;;;;;;;;;;;;;;;5093016;28;19915;-73
2023/12/19 03:37:18;;;;;;;;;;;;;;;;;;5093433;28;19912;-73
2023/12/19 03:39:43;;;;;;;;;;;;;;;;;;5092791;28;19927;-74
2023/12/19 03:42:09;;;;;;;;;;;;;;;;;;5093366;28;19908;-74
2023/12/19 03:44:35;;;;;;;;;;;;;;;;;;5093390;28;19934;-74
2023/12/19 03:47:01;;;;;;;;;;;;;;;;;;5094665;28;19908;-74
2023/12/19 03:49:27;;;;;;;;;;;;;;;;;;5097009;28;19918;-74
2023/12/19 03:51:53;;;;;;;;;;;;;;;;;;5096937;28;19908;-73
2023/12/19 03:54:19;;;;;;;;;;;;;;;;;;5096833;28;19908;-73
2023/12/19 03:56:45;;;;;;;;;;;;;;;;;;5096848;28;19914;-74
2023/12/19 03:59:11;;;;;;;;;;;;;;;;;;5078570;28;19912;-74
2023/12/19 04:01:37;;;;;;;;;;;;;;;;;;5096425;28;19916;-74
2023/12/19 04:04:03;;;;;;;;;;;;;;;;;;5096733;28;19908;-74
2023/12/19 04:06:29;;;;;;;;;;;;;;;;;;5096741;28;20364;-74
2023/12/19 04:08:55;;;;;;;;;;;;;;;;;;5096297;28;19908;-74
2023/12/19 04:11:21;;;;;;;;;;;;;;;;;;5096624;28;19914;-74
2023/12/19 04:13:47;;;;;;;;;;;;;;;;;;5096559;28;19970;-74
2023/12/19 04:16:13;;;;;;;;;;;;;;;;;;5096178;28;19915;-73
2023/12/19 04:18:39;;;;;;;;;;;;;;;;;;5096528;28;19908;-74
2023/12/19 04:21:05;;;;;;;;;;;;;;;;;;5096459;28;20001;-73
2023/12/19 04:23:31;;;;;;;;;;;;;;;;;;5078009;28;19908;-73
2023/12/19 04:25:57;;;;;;;;;;;;;;;;;;5078237;28;19912;-73
2023/12/19 04:28:23;;;;;;;;;;;;;;;;;;5078125;28;19909;-73
2023/12/19 04:30:49;;;;;;;;;;;;;;;;;;5095917;28;19915;-74
2023/12/19 04:33:14;;;;;;;;;;;;;;;;;;5096181;28;19908;-73
2023/12/19 04:35:40;;;;;;;;;;;;;;;;;;5096210;28;19953;-73
2023/12/19 04:38:06;;;;;;;;;;;;;;;;;;5095546;28;19915;-73
2023/12/19 04:40:32;;;;;;;;;;;;;;;;;;5096030;28;19921;-74
2023/12/19 04:42:58;;;;;;;;;;;;;;;;;;5095867;28;20280;-74
2023/12/19 04:45:24;;;;;;;;;;;;;;;;;;5095855;28;19951;-74
2023/12/19 04:47:50;;;;;;;;;;;;;;;;;;5077754;28;19916;-74
2023/12/19 04:50:16;;;;;;;;;;;;;;;;;;5095406;28;19908;-73
2023/12/19 04:52:42;;;;;;;;;;;;;;;;;;5095790;28;19931;-73
2023/12/19 04:55:08;;;;;;;;;;;;;;;;;;5095783;28;19974;-74
2023/12/19 04:57:34;;;;;;;;;;;;;;;;;;5095226;28;19908;-74
2023/12/19 05:00:00;;;;;;;;;;;;;;;;;;5077369;28;19920;-74
2023/12/19 05:02:26;;;;;;;;;;;;;;;;;;5095737;28;19908;-72
2023/12/19 05:04:53;;;;;;;;;;;;;;;;;;5095138;28;20011;-72
2023/12/19 05:07:19;;;;;;;;;;;;;;;;;;5095532;28;19908;-72
2023/12/19 05:09:45;;;;;;;;;;;;;;;;;;5077265;28;19912;-72
2023/12/19 05:12:10;;;;;;;;;;;;;;;;;;5095166;28;19916;-73
2023/12/19 05:14:36;;;;;;;;;;;;;;;;;;5095626;28;19951;-72
2023/12/19 05:17:03;;;;;;;;;;;;;;;;;;5077159;28;19908;-73
2023/12/19 05:19:29;;;;;;;;;;;;;;;;;;5094827;28;19962;-73
2023/12/19 05:21:55;;;;;;;;;;;;;;;;;;5095218;28;19908;-73
2023/12/19 05:24:21;;;;;;;;;;;;;;;;;;5077006;28;19990;-73
2023/12/19 05:26:47;;;;;;;;;;;;;;;;;;5094802;28;19961;-73
2023/12/19 05:29:13;;;;;;;;;;;;;;;;;;5095044;28;19908;-74
2023/12/19 05:31:39;;;;;;;;;;;;;;;;;;5095063;28;19908;-73
2023/12/19 05:34:05;;;;;;;;;;;;;;;;;;5094688;28;19930;-74
2023/12/19 05:36:34;;;;;;;;;;;;;;;;;;5076734;28;20364;-73
2023/12/19 05:38:59;;;;;;;;;;;;;;;;;;5094646;28;19920;-74
2023/12/19 05:41:25;;;;;;;;;;;;;;;;;;5094516;28;20004;-73
2023/12/19 05:43:56;;;;;;;;;;;;;;;;;;5094864;28;19908;-73
2023/12/19 05:46:21;;;;;;;;;;;;;;;;;;5094388;28;19953;-73
2023/12/19 05:48:47;;;;;;;;;;;;;;;;;;5094671;28;19916;-73
2023/12/19 05:51:15;;;;;;;;;;;;;;;;;;5094648;28;19935;-73
2023/12/19 05:53:41;;;;;;;;;;;;;;;;;;5076043;28;20380;-73
2023/12/19 05:56:06;;;;;;;;;;;;;;;;;;5094587;28;19922;-72
2023/12/19 05:58:32;;;;;;;;;;;;;;;;;;5094472;28;20003;-73
2023/12/19 06:00:59;;;;;;;;;;;;;;;;;;5075828;28;20284;-73
2023/12/19 06:03:25;;;;;;;;;;;;;;;;;;5094611;28;19999;-73
2023/12/19 06:05:51;;;;;;;;;;;;;;;;;;5076266;28;20380;-73
2023/12/19 06:08:17;;;;;;;;;;;;;;;;;;5075768;28;19908;-72
2023/12/19 06:10:43;;;;;;;;;;;;;;;;;;5094004;28;19908;-72
2023/12/19 06:13:09;;;;;;;;;;;;;;;;;;5094186;28;19908;-73
2023/12/19 06:15:35;;;;;;;;;;;;;;;;;;5093860;28;19909;-73
2023/12/19 06:18:00;;;;;;;;;;;;;;;;;;5093114;28;19950;-72
2023/12/19 06:20:27;;;;;;;;;;;;;;;;;;5094094;28;19916;-72
2023/12/19 06:22:53;;;;;;;;;;;;;;;;;;5075356;28;19943;-73
2023/12/19 06:25:18;;;;;;;;;;;;;;;;;;5091767;28;19908;-72
2023/12/19 06:27:44;;;;;;;;;;;;;;;;;;5093089;28;19916;-67
2023/12/19 06:30:10;;;;;;;;;;;;;;;;;;5092924;28;20344;-69
2023/12/19 06:32:36;;;;;;;;;;;;;;;;;;5090343;28;19919;-67
2023/12/19 06:35:03;;;;;;;;;;;;;;;;;;5068375;28;19916;-65
2023/12/19 06:37:29;;;;;;;;;;;;;;;;;;5090109;28;19912;-68
2023/12/19 06:39:55;;;;;;;;;;;;;;;;;;5088972;28;19988;-67
2023/12/19 06:42:21;;;;;;;;;;;;;;;;;;5089182;28;19912;-67
2023/12/19 06:44:47;;;;;;;;;;;;;;;;;;5088686;28;20013;-67
2023/12/19 06:47:14;;;;;;;;;;;;;;;;;;5089842;28;19935;-66
2023/12/19 06:49:40;;;;;;;;;;;;;;;;;;5072479;28;20415;-67
2023/12/19 06:52:06;;;;;;;;;;;;;;;;;;5089865;28;20016;-67
2023/12/19 06:54:32;;;;;;;;;;;;;;;;;;5090442;28;20265;-68
2023/12/19 06:56:58;;;;;;;;;;;;;;;;;;5089633;28;19912;-66
2023/12/19 06:59:24;;;;;;;;;;;;;;;;;;5088929;28;19961;-67
2023/12/19 07:01:50;;;;;;;;;;;;;;;;;;5089573;28;19912;-67
2023/12/19 07:04:16;;;;;;;;;;;;;;;;;;5071288;28;19927;-67
2023/12/19 07:06:42;;;;;;;;;;;;;;;;;;5089616;28;19919;-67
2023/12/19 07:09:08;;;;;;;;;;;;;;;;;;5089066;28;19955;-67
2023/12/19 07:11:36;;;;;;;;;;;;;;;;;;5071224;28;20551;-67
2023/12/19 07:14:02;;;;;;;;;;;;;;;;;;5091339;28;20356;-67
2023/12/19 07:16:28;;;;;;;;;;;;;;;;;;5091591;28;19962;-67
2023/12/19 07:18:54;;;;;;;;;;;;;;;;;;5091522;28;20328;-67
2023/12/19 07:21:20;;;;;;;;;;;;;;;;;;5074775;28;19912;-68
2023/12/19 07:23:46;;;;;;;;;;;;;;;;;;5075144;28;19999;-68
2023/12/19 07:26:12;;;;;;;;;;;;;;;;;;5104414;28;20364;-67
2023/12/19 07:28:38;;;;;;;;;;;;;;;;;;5114468;28;19908;-67
2023/12/19 07:31:04;;;;;;;;;;;;;;;;;;5074812;28;19919;-67
2023/12/19 07:33:30;;;;;;;;;;;;;;;;;;5095970;28;20453;-68
2023/12/19 07:35:56;;;;;;;;;;;;;;;;;;5073492;28;19946;-68
2023/12/19 07:38:22;;;;;;;;;;;;;;;;;;5092852;28;20384;-67
2023/12/19 07:40:48;;;;;;;;;;;;;;;;;;5093443;28;20386;-67
2023/12/19 07:43:14;;;;;;;;;;;;;;;;;;5074922;28;19921;-68
2023/12/19 07:45:40;;;;;;;;;;;;;;;;;;5074978;28;19908;-67
2023/12/19 07:48:06;;;;;;;;;;;;;;;;;;5093978;28;19919;-68
2023/12/19 07:50:32;;;;;;;;;;;;;;;;;;5091668;28;19916;-67
2023/12/19 07:52:58;;;;;;;;;;;;;;;;;;5093589;28;19911;-67
2023/12/19 07:55:24;;;;;;;;;;;;;;;;;;5094290;28;19912;-67
2023/12/19 07:57:50;;;;;;;;;;;;;;;;;;5091710;28;20038;-68
2023/12/19 08:00:16;;;;;;;;;;;;;;;;;;5090838;28;20005;-67
2023/12/19 08:02:42;;;;;;;;;;;;;;;;;;5099866;28;20391;-67
2023/12/19 08:05:08;;;;;;;;;;;;;;;;;;5093418;28;19908;-69
2023/12/19 08:07:37;;;;;;;;;;;;;;;;;;5093278;28;19915;-69
2023/12/19 08:10:04;;;;;;;;;;;;;;;;;;5093602;28;19912;-68
2023/12/19 08:12:30;;;;;;;;;;;;;;;;;;5074187;28;19935;-67
2023/12/19 08:14:56;;;;;;;;;;;;;;;;;;5107477;28;19915;-66
2023/12/19 08:17:22;;;;;;;;;;;;;;;;;;5095668;28;19935;-68
2023/12/19 08:19:48;;;;;;;;;;;;;;;;;;5092080;28;19916;-69
2023/12/19 08:22:14;;;;;;;;;;;;;;;;;;5091200;28;20002;-67
2023/12/19 08:24:40;;;;;;;;;;;;;;;;;;5090836;28;19912;-68
2023/12/19 08:27:06;;;;;;;;;;;;;;;;;;5083469;28;19912;-68
2023/12/19 08:29:32;;;;;;;;;;;;;;;;;;5089368;28;20038;-69
2023/12/19 08:31:58;;;;;;;;;;;;;;;;;;5096995;28;19924;-70
2023/12/19 08:34:23;;;;;;;;;;;;;;;;;;5091660;28;19919;-69
2023/12/19 08:36:49;;;;;;;;;;;;;;;;;;5061453;28;19977;-69
2023/12/19 08:39:17;;;;;;;;;;;;;;;;;;5087898;28;19920;-70
2023/12/19 08:41:43;;;;;;;;;;;;;;;;;;5079689;28;19920;-69
2023/12/19 08:44:09;;;;;;;;;;;;;;;;;;5075061;28;19916;-67
2023/12/19 08:46:35;;;;;;;;;;;;;;;;;;5061437;28;19995;-67
2023/12/19 08:49:02;;;;;;;;;;;;;;;;;;5088443;28;19919;-68
2023/12/19 08:51:28;;;;;;;;;;;;;;;;;;5089558;28;19966;-67
2023/12/19 08:53:54;;;;;;;;;;;;;;;;;;5102012;28;19952;-67
2023/12/19 08:56:20;;;;;;;;;;;;;;;;;;5089396;28;19909;-68
2023/12/19 08:58:48;;;;;;;;;;;;;;;;;;5072269;28;19916;-68
2023/12/19 09:01:14;;;;;;;;;;;;;;;;;;5066292;28;19962;-68
2023/12/19 09:03:41;;;;;;;;;;;;;;;;;;5070602;28;20346;-68
2023/12/19 09:06:11;;;;;;;;;;;;;;;;;;5084905;28;19916;-69
2023/12/19 09:08:36;;;;;;;;;;;;;;;;;;5086455;28;19912;-68
2023/12/19 09:11:04;;;;;;;;;;;;;;;;;;5088011;28;19919;-68
2023/12/19 09:13:31;;;;;;;;;;;;;;;;;;5093480;28;19974;-67
2023/12/19 09:16:00;;;;;;;;;;;;;;;;;;5087538;28;19923;-69
2023/12/19 09:18:26;;;;;;;;;;;;;;;;;;5087801;28;20021;-68
2023/12/19 09:20:52;;;;;;;;;;;;;;;;;;5068600;28;19916;-69
2023/12/19 09:23:18;;;;;;;;;;;;;;;;;;5092287;28;19934;-69
2023/12/19 09:25:45;;;;;;;;;;;;;;;;;;5092956;28;20388;-73
2023/12/19 09:28:11;;;;;;;;;;;;;;;;;;5094083;28;19908;-68
2023/12/19 09:30:37;;;;;;;;;;;;;;;;;;5103931;28;20000;-71
2023/12/19 09:33:03;;;;;;;;;;;;;;;;;;5076966;28;19965;-69
2023/12/19 09:35:30;;;;;;;;;;;;;;;;;;5090130;28;19911;-69
2023/12/19 09:38:01;;;;;;;;;;;;;;;;;;5085570;28;19917;-70
2023/12/19 09:40:27;;;;;;;;;;;;;;;;;;5084295;28;19921;-69
2023/12/19 09:42:53;;;;;;;;;;;;;;;;;;5085245;28;20003;-69
2023/12/19 09:45:19;;;;;;;;;;;;;;;;;;5088645;28;19916;-70
2023/12/19 09:47:44;;;;;;;;;;;;;;;;;;5088778;28;20379;-70
2023/12/19 09:50:11;;;;;;;;;;;;;;;;;;5088945;28;20253;-70
2023/12/19 09:52:37;;;;;;;;;;;;;;;;;;5090155;28;19912;-68
2023/12/19 09:55:04;;;;;;;;;;;;;;;;;;5072471;28;19916;-70
2023/12/19 09:57:30;;;;;;;;;;;;;;;;;;5089472;28;20016;-69
2023/12/19 09:59:56;;;;;;;;;;;;;;;;;;5088228;28;20704;-70
2023/12/19 10:02:21;;;;;;;;;;;;;;;;;;5088449;28;19935;-71
2023/12/19 10:04:47;;;;;;;;;;;;;;;;;;5071318;28;19916;-70
2023/12/19 10:07:14;;;;;;;;;;;;;;;;;;5089691;28;20290;-74
2023/12/19 10:09:41;;;;;;;;;;;;;;;;;;5078685;28;20408;-72
2023/12/19 10:12:07;;;;;;;;;;;;;;;;;;5091426;28;19908;-72
2023/12/19 10:14:33;;;;;;;;;;;;;;;;;;5091960;28;19919;-72
2023/12/19 10:16:59;;;;;;;;;;;;;;;;;;5092805;28;19912;-72
2023/12/19 10:19:26;;;;;;;;;;;;;;;;;;5092969;28;20334;-72
2023/12/19 10:21:52;;;;;;;;;;;;;;;;;;5092393;28;19909;-73
2023/12/19 10:24:18;;;;;;;;;;;;;;;;;;5074015;28;19912;-73
2023/12/19 10:26:44;;;;;;;;;;;;;;;;;;5092967;28;19915;-74
2023/12/19 10:29:11;;;;;;;;;;;;;;;;;;5092843;28;19908;-74
2023/12/19 10:31:37;;;;;;;;;;;;;;;;;;5075417;28;19938;-74
2023/12/19 10:34:02;;;;;;;;;;;;;;;;;;5073642;28;20318;-74
2023/12/19 10:36:28;;;;;;;;;;;;;;;;;;5072011;28;20396;-74
2023/12/19 10:38:54;;;;;;;;;;;;;;;;;;5091055;28;19943;-74
2023/12/19 10:41:22;;;;;;;;;;;;;;;;;;5092134;28;19919;-74
2023/12/19 10:43:49;;;;;;;;;;;;;;;;;;5091988;28;19919;-74
2023/12/19 10:46:16;;;;;;;;;;;;;;;;;;5092701;28;19993;-73
2023/12/19 10:48:42;;;;;;;;;;;;;;;;;;5092476;28;19908;-74
2023/12/19 10:51:08;;;;;;;;;;;;;;;;;;5093166;28;19915;-74
2023/12/19 10:53:34;;;;;;;;;;;;;;;;;;5074327;28;20369;-74
2023/12/19 10:56:00;;;;;;;;;;;;;;;;;;5074874;28;20333;-74
2023/12/19 10:58:29;;;;;;;;;;;;;;;;;;5097666;28;20285;-78
2023/12/19 11:00:55;;;;;;;;;;;;;;;;;;5095684;28;19916;-73
2023/12/19 11:03:21;;;;;;;;;;;;;;;;;;5095804;28;19909;-73
2023/12/19 11:05:47;;;;;;;;;;;;;;;;;;5096565;28;19912;-73
2023/12/19 11:08:14;;;;;;;;;;;;;;;;;;5096645;28;19915;-73
2023/12/19 11:10:40;;;;;;;;;;;;;;;;;;5079040;28;19931;-73
2023/12/19 11:13:06;;;;;;;;;;;;;;;;;;5097968;28;20373;-73
2023/12/19 11:15:32;;;;;;;;;;;;;;;;;;5097543;28;19914;-73
2023/12/19 11:17:58;;;;;;;;;;;;;;;;;;5097128;28;19989;-73
2023/12/19 11:20:24;;;;;;;;;;;;;;;;;;5097424;28;19920;-73
2023/12/19 11:22:50;;;;;;;;;;;;;;;;;;5097414;28;19995;-73
2023/12/19 11:25:16;;;;;;;;;;;;;;;;;;5096779;28;19908;-73
2023/12/19 11:27:42;;;;;;;;;;;;;;;;;;5097764;28;19915;-73
2023/12/19 11:30:08;;;;;;;;;;;;;;;;;;5097225;28;19917;-75
2023/12/19 11:32:37;;;;;;;;;;;;;;;;;;5078876;28;20272;-74
2023/12/19 11:40:37;;;;;;;;;;;;;;;;;;5090411;27;19916;-73
2023/12/19 11:44:22;;;;;;;;;;;;;;;;;;5090430;27;19922;-72
2023/12/19 11:46:48;;;;;;;;;;;;;;;;;;5090097;28;19913;-72
2023/12/19 11:49:14;;;;;;;;;;;;;;;;;;5086651;28;19996;-72
2023/12/19 11:51:40;;;;;;;;;;;;;;;;;;5089552;28;19908;-72
2023/12/19 11:54:10;;;;;;;;;;;;;;;;;;5089599;28;19908;-72
2023/12/19 11:56:36;;;;;;;;;;;;;;;;;;5090473;28;19912;-72
2023/12/19 11:59:02;;;;;;;;;;;;;;;;;;5090226;28;20253;-72
2023/12/19 12:01:28;;;;;;;;;;;;;;;;;;5090843;28;19909;-72
2023/12/19 12:05:54;;;;;;;;;;;;;;;;;;5092046;27;20368;-72
2023/12/19 12:08:21;;;;;;;;;;;;;;;;;;5090766;28;19920;-72
2023/12/19 12:15:52;;;;;;;;;;;;;;;;;;5174196;27;20006;-73
2023/12/19 12:20:25;;;;;;;;;;;;;;;;;;5090701;27;19923;-73
2023/12/19 12:22:51;;;;;;;;;;;;;;;;;;5089840;28;20432;-73
2023/12/19 12:25:33;;;;;;;;;;;;;;;;;;5090063;27;20269;-73
2023/12/19 12:27:59;;;;;;;;;;;;;;;;;;5090518;28;19912;-73
2023/12/19 12:30:25;;;;;;;;;;;;;;;;;;5091118;28;20368;-75
2023/12/19 12:39:34;;;;;;;;;;;;;;;;;;5090697;27;19916;-73
2023/12/19 12:42:00;;;;;;;;;;;;;;;;;;5090294;28;20227;-73
2023/12/19 12:48:21;;;;;;;;;;;;;;;;;;5090138;27;19916;-72
2023/12/19 12:50:47;;;;;;;;;;;;;;;;;;5090763;28;19918;-72
2023/12/19 12:53:13;;;;;;;;;;;;;;;;;;5091144;28;19912;-72
2023/12/19 12:58:02;;;;;;;;;;;;;;;;;;5091949;27;20361;-72
2023/12/19 13:00:28;;;;;;;;;;;;;;;;;;5091214;28;19932;-72
2023/12/19 13:02:54;;;;;;;;;;;;;;;;;;5090870;28;19915;-72
2023/12/19 13:05:20;;;;;;;;;;;;;;;;;;5091062;28;19909;-72
2023/12/19 13:12:01;;;;;;;;;;;;;;;;;;5091981;27;19917;-72
2023/12/19 13:14:27;;;;;;;;;;;;;;;;;;5089897;28;19999;-72
2023/12/19 13:20:03;;;;;;;;;;;;;;;;;;5091669;27;20395;-72
2023/12/19 13:24:57;;;;;;;;;;;;;;;;;;5091315;28;19917;-72
2023/12/19 13:27:23;;;;;;;;;;;;;;;;;;5090339;28;20003;-72
2023/12/19 13:29:49;;;;;;;;;;;;;;;;;;5091164;28;19908;-73
2023/12/19 13:32:15;;;;;;;;;;;;;;;;;;5090282;28;19931;-73
2023/12/19 13:35:20;;;;;;;;;;;;;;;;;;5091515;27;19913;-72
2023/12/19 13:37:46;;;;;;;;;;;;;;;;;;5090756;28;20444;-72
2023/12/19 13:40:12;;;;;;;;;;;;;;;;;;5091268;28;19909;-74
2023/12/19 13:43:16;;;;;;;;;;;;;;;;;;5091842;27;20398;-72
2023/12/19 13:45:59;;;;;;;;;;;;;;;;;;5111375;27;19916;-72
2023/12/19 13:48:25;;;;;;;;;;;;;;;;;;5111704;28;20003;-72
2023/12/19 13:51:29;;;;;;;;;;;;;;;;;;5112645;27;19912;-72
2023/12/19 13:53:55;;;;;;;;;;;;;;;;;;5110791;28;19934;-71
2023/12/19 13:56:21;;;;;;;;;;;;;;;;;;5109562;28;19954;-73
2023/12/19 13:58:47;;;;;;;;;;;;;;;;;;5109138;28;19908;-72
2023/12/19 14:01:13;;;;;;;;;;;;;;;;;;5108863;28;19915;-72
2023/12/19 14:03:40;;;;;;;;;;;;;;;;;;5110163;28;20404;-72
2023/12/19 14:06:06;;;;;;;;;;;;;;;;;;5109868;28;19991;-72
2023/12/19 14:08:32;;;;;;;;;;;;;;;;;;5110722;28;19955;-74
2023/12/19 14:10:58;;;;;;;;;;;;;;;;;;5111279;28;20025;-72
2023/12/19 14:13:24;;;;;;;;;;;;;;;;;;5110927;28;19916;-72
2023/12/19 14:15:53;;;;;;;;;;;;;;;;;;5111528;28;19962;-72
2023/12/19 14:18:19;;;;;;;;;;;;;;;;;;5111441;28;19964;-72
2023/12/19 14:24:39;;;;;;;;;;;;;;;;;;5092226;28;19916;-72
2023/12/19 14:29:06;;;;;;;;;;;;;;;;;;5090957;27;19981;-71
2023/12/19 14:31:33;;;;;;;;;;;;;;;;;;5091714;28;20015;-71
2023/12/19 14:33:59;;;;;;;;;;;;;;;;;;5090790;28;19962;-72
2023/12/19 14:36:25;;;;;;;;;;;;;;;;;;5091203;28;19908;-72
2023/12/19 14:38:51;;;;;;;;;;;;;;;;;;5089874;28;19920;-72
2023/12/19 14:41:17;;;;;;;;;;;;;;;;;;5090759;28;19915;-71
2023/12/19 14:43:43;;;;;;;;;;;;;;;;;;5090911;28;19908;-71
2023/12/19 14:46:09;;;;;;;;;;;;;;;;;;5090994;28;19962;-72
2023/12/19 14:50:13;;;;;;;;;;;;;;;;;;5091010;27;19912;-72
2023/12/19 14:52:39;;;;;;;;;;;;;;;;;;5091231;28;19912;-71
2023/12/19 14:55:06;;;;;;;;;;;;;;;;;;5089876;28;19935;-71
2023/12/19 14:57:32;;;;;;;;;;;;;;;;;;5091317;28;19999;-73
2023/12/19 14:59:58;;;;;;;;;;;;;;;;;;5089943;28;19958;-73
2023/12/19 15:02:25;;;;;;;;;;;;;;;;;;5090745;28;19928;-73
2023/12/19 15:04:51;;;;;;;;;;;;;;;;;;5089876;28;19994;-73
2023/12/19 15:07:17;;;;;;;;;;;;;;;;;;5089757;28;20329;-73
2023/12/19 15:09:44;;;;;;;;;;;;;;;;;;5090568;28;19928;-72
2023/12/19 15:12:10;;;;;;;;;;;;;;;;;;5090997;28;19909;-74
2023/12/19 15:14:36;;;;;;;;;;;;;;;;;;5090775;28;19909;-71
2023/12/19 15:17:02;;;;;;;;;;;;;;;;;;5090595;28;19915;-72
2023/12/19 15:19:28;;;;;;;;;;;;;;;;;;5090867;28;19915;-72
2023/12/19 15:21:54;;;;;;;;;;;;;;;;;;5090891;28;19909;-74
2023/12/19 15:24:20;;;;;;;;;;;;;;;;;;5090478;28;20146;-72
2023/12/19 15:26:46;;;;;;;;;;;;;;;;;;5090719;28;19908;-72
2023/12/19 15:29:12;;;;;;;;;;;;;;;;;;5090607;28;19917;-73
2023/12/19 15:31:38;;;;;;;;;;;;;;;;;;5090443;28;19916;-72
2023/12/19 15:34:04;;;;;;;;;;;;;;;;;;5090599;28;19908;-73
2023/12/19 15:36:30;;;;;;;;;;;;;;;;;;5090650;28;19950;-74
2023/12/19 15:38:56;;;;;;;;;;;;;;;;;;5090275;28;19908;-73
2023/12/19 15:41:22;;;;;;;;;;;;;;;;;;5090470;28;19915;-72
2023/12/19 15:43:49;;;;;;;;;;;;;;;;;;5089085;28;20287;-73
2023/12/19 15:46:15;;;;;;;;;;;;;;;;;;5090168;28;19908;-72
2023/12/19 15:48:41;;;;;;;;;;;;;;;;;;5097864;28;19930;-75
2023/12/19 15:51:07;;;;;;;;;;;;;;;;;;5092295;28;19998;-74
2023/12/19 15:53:34;;;;;;;;;;;;;;;;;;5110254;28;19908;-73
2023/12/19 15:56:00;;;;;;;;;;;;;;;;;;5110300;28;19908;-72
2023/12/19 15:58:26;;;;;;;;;;;;;;;;;;5110128;28;19908;-72
2023/12/19 16:00:52;;;;;;;;;;;;;;;;;;5100528;28;19912;-72
2023/12/19 16:03:18;;;;;;;;;;;;;;;;;;5078590;28;20360;-72
2023/12/19 16:05:45;;;;;;;;;;;;;;;;;;5096309;28;19977;-73
2023/12/19 16:08:11;;;;;;;;;;;;;;;;;;5096591;28;20000;-72
2023/12/19 16:10:37;;;;;;;;;;;;;;;;;;5096804;28;19912;-73
2023/12/19 16:13:03;;;;;;;;;;;;;;;;;;5096189;28;19908;-72
2023/12/19 16:15:29;;;;;;;;;;;;;;;;;;5096658;28;20414;-73
2023/12/19 16:17:55;;;;;;;;;;;;;;;;;;5096531;28;19909;-73
2023/12/19 16:20:21;;;;;;;;;;;;;;;;;;5095608;28;19912;-72
2023/12/19 16:22:47;;;;;;;;;;;;;;;;;;5096354;28;19915;-72
2023/12/19 16:25:14;;;;;;;;;;;;;;;;;;5096204;28;19923;-72
2023/12/19 16:27:40;;;;;;;;;;;;;;;;;;5095923;28;19916;-72
2023/12/19 16:30:06;;;;;;;;;;;;;;;;;;5096134;28;19924;-72
2023/12/19 16:32:32;;;;;;;;;;;;;;;;;;5077984;28;19908;-72
2023/12/19 16:34:58;;;;;;;;;;;;;;;;;;5077550;28;19912;-72
2023/12/19 16:37:24;;;;;;;;;;;;;;;;;;5095944;28;19952;-73
2023/12/19 16:39:53;;;;;;;;;;;;;;;;;;5077891;28;19923;-73
2023/12/19 16:42:19;;;;;;;;;;;;;;;;;;5095547;28;19915;-72
2023/12/19 16:44:45;;;;;;;;;;;;;;;;;;5095926;28;19914;-73
2023/12/19 16:47:11;;;;;;;;;;;;;;;;;;5077728;28;19951;-71
2023/12/19 16:49:37;;;;;;;;;;;;;;;;;;5095268;28;19927;-71
2023/12/19 16:52:03;;;;;;;;;;;;;;;;;;5095770;28;19908;-72
2023/12/19 16:54:29;;;;;;;;;;;;;;;;;;5095303;28;19962;-72
2023/12/19 16:56:55;;;;;;;;;;;;;;;;;;5095690;28;20283;-71
2023/12/19 16:59:21;;;;;;;;;;;;;;;;;;5077379;28;20315;-72
2023/12/19 17:01:48;;;;;;;;;;;;;;;;;;5095359;28;19908;-72
2023/12/19 17:04:14;;;;;;;;;;;;;;;;;;5095530;28;19908;-72
2023/12/19 17:06:40;;;;;;;;;;;;;;;;;;5095472;28;20285;-72
2023/12/19 17:09:06;;;;;;;;;;;;;;;;;;5095006;28;19966;-72
2023/12/19 17:11:32;;;;;;;;;;;;;;;;;;5094470;28;19970;-72
2023/12/19 17:13:58;;;;;;;;;;;;;;;;;;5095108;28;19958;-71
2023/12/19 17:16:24;;;;;;;;;;;;;;;;;;5076660;28;19912;-73
2023/12/19 17:18:50;;;;;;;;;;;;;;;;;;5095261;28;20347;-73
2023/12/19 17:21:16;;;;;;;;;;;;;;;;;;5095152;28;19908;-72
2023/12/19 17:23:42;;;;;;;;;;;;;;;;;;5094907;28;19908;-72
2023/12/19 17:26:08;;;;;;;;;;;;;;;;;;5076948;28;19914;-72